sensor_id;sensor_type;location;lat;lon;timestamp;P1;durP1;ratioP1;P2;durP2;ratioP2
55218;SDS011;65463;43.864;20.136;2023-02-15T00:01:12;73.85;;;39.03;;
55218;SDS011;65463;43.864;20.136;2023-02-15T00:03:41;75.70;;;38.92;;
55218;SDS011;65463;43.864;20.136;2023-02-15T00:06:07;77.88;;;37.67;;
55218;SDS011;65463;43.864;20.136;2023-02-15T00:08:33;74.40;;;38.50;;
55218;SDS011;65463;43.864;20.136;2023-02-15T00:11:07;74.10;;;38.33;;
55218;SDS011;65463;43.864;20.136;2023-02-15T00:13:33;71.38;;;37.20;;
55218;SDS011;65463;43.864;20.136;2023-02-15T00:16:07;71.82;;;35.95;;
55218;SDS011;65463;43.864;20.136;2023-02-15T00:18:33;67.50;;;35.00;;
55218;SDS011;65463;43.864;20.136;2023-02-15T00:21:03;74.68;;;37.30;;
55218;SDS011;65463;43.864;20.136;2023-02-15T00:23:29;73.05;;;37.47;;
55218;SDS011;65463;43.864;20.136;2023-02-15T00:26:09;73.13;;;37.40;;
55218;SDS011;65463;43.864;20.136;2023-02-15T00:28:35;70.93;;;35.53;;
55218;SDS011;65463;43.864;20.136;2023-02-15T00:31:02;64.20;;;34.55;;
55218;SDS011;65463;43.864;20.136;2023-02-15T00:33:28;66.25;;;35.25;;
55218;SDS011;65463;43.864;20.136;2023-02-15T00:35:58;67.35;;;35.28;;
55218;SDS011;65463;43.864;20.136;2023-02-15T00:38:25;68.00;;;37.63;;
55218;SDS011;65463;43.864;20.136;2023-02-15T00:40:55;70.75;;;37.95;;
55218;SDS011;65463;43.864;20.136;2023-02-15T00:43:21;74.00;;;37.45;;
55218;SDS011;65463;43.864;20.136;2023-02-15T00:45:48;71.57;;;36.55;;
55218;SDS011;65463;43.864;20.136;2023-02-15T00:48:14;66.97;;;37.53;;
55218;SDS011;65463;43.864;20.136;2023-02-15T00:50:51;68.80;;;37.45;;
55218;SDS011;65463;43.864;20.136;2023-02-15T00:53:17;68.35;;;37.10;;
55218;SDS011;65463;43.864;20.136;2023-02-15T00:55:43;71.47;;;37.38;;
55218;SDS011;65463;43.864;20.136;2023-02-15T00:58:10;73.63;;;37.67;;
55218;SDS011;65463;43.864;20.136;2023-02-15T01:00:37;69.13;;;36.72;;
55218;SDS011;65463;43.864;20.136;2023-02-15T01:03:04;73.72;;;37.65;;
55218;SDS011;65463;43.864;20.136;2023-02-15T01:05:30;72.40;;;36.38;;
55218;SDS011;65463;43.864;20.136;2023-02-15T01:07:57;67.47;;;36.58;;
55218;SDS011;65463;43.864;20.136;2023-02-15T01:10:24;68.22;;;35.50;;
55218;SDS011;65463;43.864;20.136;2023-02-15T01:12:51;68.40;;;36.33;;
55218;SDS011;65463;43.864;20.136;2023-02-15T01:15:18;69.93;;;36.97;;
55218;SDS011;65463;43.864;20.136;2023-02-15T01:17:44;62.28;;;31.55;;
55218;SDS011;65463;43.864;20.136;2023-02-15T01:20:16;65.18;;;34.22;;
55218;SDS011;65463;43.864;20.136;2023-02-15T01:22:43;78.93;;;41.47;;
55218;SDS011;65463;43.864;20.136;2023-02-15T01:25:09;73.65;;;37.10;;
55218;SDS011;65463;43.864;20.136;2023-02-15T01:27:36;78.28;;;41.10;;
55218;SDS011;65463;43.864;20.136;2023-02-15T01:30:02;72.72;;;40.38;;
55218;SDS011;65463;43.864;20.136;2023-02-15T01:32:29;77.93;;;41.65;;
55218;SDS011;65463;43.864;20.136;2023-02-15T01:34:56;78.38;;;41.13;;
55218;SDS011;65463;43.864;20.136;2023-02-15T01:37:22;76.55;;;41.53;;
55218;SDS011;65463;43.864;20.136;2023-02-15T01:39:48;78.97;;;41.42;;
55218;SDS011;65463;43.864;20.136;2023-02-15T01:42:20;76.70;;;42.20;;
55218;SDS011;65463;43.864;20.136;2023-02-15T01:47:14;77.43;;;40.95;;
55218;SDS011;65463;43.864;20.136;2023-02-15T01:49:42;65.65;;;35.22;;
55218;SDS011;65463;43.864;20.136;2023-02-15T01:52:10;69.65;;;34.65;;
55218;SDS011;65463;43.864;20.136;2023-02-15T01:54:39;64.50;;;32.95;;
55218;SDS011;65463;43.864;20.136;2023-02-15T01:57:10;69.57;;;33.53;;
55218;SDS011;65463;43.864;20.136;2023-02-15T01:59:38;62.35;;;31.10;;
55218;SDS011;65463;43.864;20.136;2023-02-15T02:02:05;68.43;;;34.42;;
55218;SDS011;65463;43.864;20.136;2023-02-15T02:07:03;71.07;;;34.90;;
55218;SDS011;65463;43.864;20.136;2023-02-15T02:09:30;69.30;;;37.20;;
55218;SDS011;65463;43.864;20.136;2023-02-15T02:11:56;75.53;;;38.58;;
55218;SDS011;65463;43.864;20.136;2023-02-15T02:14:22;75.28;;;39.30;;
55218;SDS011;65463;43.864;20.136;2023-02-15T02:26:55;80.97;;;40.42;;
55218;SDS011;65463;43.864;20.136;2023-02-15T02:29:33;82.53;;;40.35;;
55218;SDS011;65463;43.864;20.136;2023-02-15T02:37:37;78.90;;;39.25;;
55218;SDS011;65463;43.864;20.136;2023-02-15T02:40:11;85.30;;;42.95;;
55218;SDS011;65463;43.864;20.136;2023-02-15T02:47:54;75.57;;;39.75;;
55218;SDS011;65463;43.864;20.136;2023-02-15T02:50:23;79.53;;;42.03;;
55218;SDS011;65463;43.864;20.136;2023-02-15T02:52:52;77.22;;;35.15;;
55218;SDS011;65463;43.864;20.136;2023-02-15T02:58:05;68.22;;;34.03;;
55218;SDS011;65463;43.864;20.136;2023-02-15T03:00:33;82.90;;;37.35;;
55218;SDS011;65463;43.864;20.136;2023-02-15T03:03:02;75.00;;;36.40;;
55218;SDS011;65463;43.864;20.136;2023-02-15T03:05:30;82.70;;;38.63;;
55218;SDS011;65463;43.864;20.136;2023-02-15T03:07:57;74.28;;;39.60;;
55218;SDS011;65463;43.864;20.136;2023-02-15T03:10:26;78.22;;;39.20;;
55218;SDS011;65463;43.864;20.136;2023-02-15T03:12:54;77.85;;;37.03;;
55218;SDS011;65463;43.864;20.136;2023-02-15T03:15:22;81.07;;;36.55;;
55218;SDS011;65463;43.864;20.136;2023-02-15T03:17:54;68.30;;;34.95;;
55218;SDS011;65463;43.864;20.136;2023-02-15T03:20:28;65.63;;;31.27;;
55218;SDS011;65463;43.864;20.136;2023-02-15T03:22:56;74.55;;;34.67;;
55218;SDS011;65463;43.864;20.136;2023-02-15T03:25:33;70.75;;;32.97;;
55218;SDS011;65463;43.864;20.136;2023-02-15T03:28:02;72.78;;;35.30;;
55218;SDS011;65463;43.864;20.136;2023-02-15T03:30:29;64.18;;;32.45;;
55218;SDS011;65463;43.864;20.136;2023-02-15T03:32:56;64.82;;;32.08;;
55218;SDS011;65463;43.864;20.136;2023-02-15T03:35:23;66.72;;;32.30;;
55218;SDS011;65463;43.864;20.136;2023-02-15T03:37:51;68.97;;;32.05;;
55218;SDS011;65463;43.864;20.136;2023-02-15T03:40:22;72.55;;;32.72;;
55218;SDS011;65463;43.864;20.136;2023-02-15T03:43:12;70.10;;;32.38;;
55218;SDS011;65463;43.864;20.136;2023-02-15T03:45:40;69.85;;;32.42;;
55218;SDS011;65463;43.864;20.136;2023-02-15T03:48:40;77.70;;;34.90;;
55218;SDS011;65463;43.864;20.136;2023-02-15T03:51:09;74.25;;;34.78;;
55218;SDS011;65463;43.864;20.136;2023-02-15T03:53:56;77.68;;;35.97;;
55218;SDS011;65463;43.864;20.136;2023-02-15T03:56:23;74.47;;;36.20;;
55218;SDS011;65463;43.864;20.136;2023-02-15T03:58:50;79.05;;;37.45;;
55218;SDS011;65463;43.864;20.136;2023-02-15T04:01:45;79.05;;;37.90;;
55218;SDS011;65463;43.864;20.136;2023-02-15T04:04:23;68.20;;;34.03;;
55218;SDS011;65463;43.864;20.136;2023-02-15T04:06:50;67.38;;;32.13;;
55218;SDS011;65463;43.864;20.136;2023-02-15T04:09:17;73.97;;;34.22;;
55218;SDS011;65463;43.864;20.136;2023-02-15T04:12:01;76.28;;;30.90;;
55218;SDS011;65463;43.864;20.136;2023-02-15T04:14:30;73.20;;;31.40;;
55218;SDS011;65463;43.864;20.136;2023-02-15T04:17:15;77.47;;;31.42;;
55218;SDS011;65463;43.864;20.136;2023-02-15T04:19:41;84.50;;;33.85;;
55218;SDS011;65463;43.864;20.136;2023-02-15T04:22:26;76.50;;;33.53;;
55218;SDS011;65463;43.864;20.136;2023-02-15T04:25:10;76.35;;;34.60;;
55218;SDS011;65463;43.864;20.136;2023-02-15T04:27:40;79.53;;;32.95;;
55218;SDS011;65463;43.864;20.136;2023-02-15T04:30:06;76.10;;;33.63;;
55218;SDS011;65463;43.864;20.136;2023-02-15T04:32:33;78.78;;;34.53;;
55218;SDS011;65463;43.864;20.136;2023-02-15T04:34:59;78.07;;;35.00;;
55218;SDS011;65463;43.864;20.136;2023-02-15T04:37:25;81.82;;;33.28;;
55218;SDS011;65463;43.864;20.136;2023-02-15T04:39:52;81.35;;;34.63;;
55218;SDS011;65463;43.864;20.136;2023-02-15T04:42:18;78.57;;;34.83;;
55218;SDS011;65463;43.864;20.136;2023-02-15T04:44:44;84.20;;;38.40;;
55218;SDS011;65463;43.864;20.136;2023-02-15T04:47:10;71.68;;;32.97;;
55218;SDS011;65463;43.864;20.136;2023-02-15T04:49:36;73.63;;;35.35;;
55218;SDS011;65463;43.864;20.136;2023-02-15T04:52:03;87.07;;;38.03;;
55218;SDS011;65463;43.864;20.136;2023-02-15T04:54:29;81.28;;;36.45;;
55218;SDS011;65463;43.864;20.136;2023-02-15T04:56:55;74.32;;;36.65;;
55218;SDS011;65463;43.864;20.136;2023-02-15T04:59:21;86.72;;;39.65;;
55218;SDS011;65463;43.864;20.136;2023-02-15T05:01:47;79.25;;;38.72;;
55218;SDS011;65463;43.864;20.136;2023-02-15T05:04:13;83.65;;;40.88;;
55218;SDS011;65463;43.864;20.136;2023-02-15T05:06:40;90.38;;;42.05;;
55218;SDS011;65463;43.864;20.136;2023-02-15T05:09:06;82.95;;;40.78;;
55218;SDS011;65463;43.864;20.136;2023-02-15T05:11:32;83.78;;;41.20;;
55218;SDS011;65463;43.864;20.136;2023-02-15T05:13:58;92.03;;;40.22;;
55218;SDS011;65463;43.864;20.136;2023-02-15T05:16:24;81.68;;;39.33;;
55218;SDS011;65463;43.864;20.136;2023-02-15T05:18:52;94.45;;;40.58;;
55218;SDS011;65463;43.864;20.136;2023-02-15T05:21:18;80.78;;;39.45;;
55218;SDS011;65463;43.864;20.136;2023-02-15T05:23:45;74.93;;;35.53;;
55218;SDS011;65463;43.864;20.136;2023-02-15T05:26:11;76.55;;;35.95;;
55218;SDS011;65463;43.864;20.136;2023-02-15T05:28:56;79.25;;;37.53;;
55218;SDS011;65463;43.864;20.136;2023-02-15T05:31:22;107.15;;;42.78;;
55218;SDS011;65463;43.864;20.136;2023-02-15T05:33:48;91.25;;;38.50;;
55218;SDS011;65463;43.864;20.136;2023-02-15T05:36:15;89.63;;;41.67;;
55218;SDS011;65463;43.864;20.136;2023-02-15T05:38:41;112.35;;;45.85;;
55218;SDS011;65463;43.864;20.136;2023-02-15T05:41:07;108.47;;;44.05;;
55218;SDS011;65463;43.864;20.136;2023-02-15T05:43:34;96.63;;;40.97;;
